sensor_id;sensor_type;location;lat;lon;timestamp;pressure;altitude;pressure_sealevel;temperature;humidity
71424;BME280;59240;51.370;-0.486;2024-02-21T00:04:18;101973.16;;;11.38;83.21
71424;BME280;59240;51.370;-0.486;2024-02-21T00:09:18;101953.22;;;11.34;83.25
71424;BME280;59240;51.370;-0.486;2024-02-21T00:14:16;101965.34;;;11.39;83.02
71424;BME280;59240;51.370;-0.486;2024-02-21T00:19:14;101936.69;;;11.30;83.15
71424;BME280;59240;51.370;-0.486;2024-02-21T00:24:12;101932.31;;;11.32;83.04
71424;BME280;59240;51.370;-0.486;2024-02-21T00:29:11;101947.88;;;11.54;83.05
71424;BME280;59240;51.370;-0.486;2024-02-21T00:34:08;101914.03;;;11.41;82.61
71424;BME280;59240;51.370;-0.486;2024-02-21T00:39:05;101947.81;;;11.57;82.58
71424;BME280;59240;51.370;-0.486;2024-02-21T00:44:03;101898.41;;;11.35;82.91
71424;BME280;59240;51.370;-0.486;2024-02-21T00:49:02;101916.59;;;11.47;83.22
71424;BME280;59240;51.370;-0.486;2024-02-21T00:53:59;101896.63;;;11.42;83.63
71424;BME280;59240;51.370;-0.486;2024-02-21T00:58:56;101897.41;;;11.51;83.33
71424;BME280;59240;51.370;-0.486;2024-02-21T01:03:53;101863.66;;;11.33;83.73
71424;BME280;59240;51.370;-0.486;2024-02-21T01:08:50;101884.38;;;11.53;83.45
71424;BME280;59240;51.370;-0.486;2024-02-21T01:13:47;101877.38;;;11.55;83.76
71424;BME280;59240;51.370;-0.486;2024-02-21T01:18:46;101864.31;;;11.57;83.86
71424;BME280;59240;51.370;-0.486;2024-02-21T01:23:44;101819.22;;;11.42;83.65
71424;BME280;59240;51.370;-0.486;2024-02-21T01:28:41;101841.66;;;11.59;83.70
71424;BME280;59240;51.370;-0.486;2024-02-21T01:33:41;101845.09;;;11.65;83.74
71424;BME280;59240;51.370;-0.486;2024-02-21T01:38:39;101830.34;;;11.61;84.02
71424;BME280;59240;51.370;-0.486;2024-02-21T01:43:36;101810.28;;;11.65;83.70
71424;BME280;59240;51.370;-0.486;2024-02-21T01:48:32;101749.72;;;11.35;83.63
71424;BME280;59240;51.370;-0.486;2024-02-21T01:53:32;101791.13;;;11.69;83.85
71424;BME280;59240;51.370;-0.486;2024-02-21T01:58:32;101779.78;;;11.70;83.65
71424;BME280;59240;51.370;-0.486;2024-02-21T02:03:33;101757.16;;;11.70;83.40
71424;BME280;59240;51.370;-0.486;2024-02-21T02:08:31;101752.78;;;11.74;83.46
71424;BME280;59240;51.370;-0.486;2024-02-21T02:13:28;101740.59;;;11.73;83.29
71424;BME280;59240;51.370;-0.486;2024-02-21T02:18:26;101719.72;;;11.73;83.36
71424;BME280;59240;51.370;-0.486;2024-02-21T02:23:27;101706.63;;;11.76;83.56
71424;BME280;59240;51.370;-0.486;2024-02-21T02:28:24;101696.22;;;11.73;83.31
71424;BME280;59240;51.370;-0.486;2024-02-21T02:33:21;101691.94;;;11.69;83.33
71424;BME280;59240;51.370;-0.486;2024-02-21T02:38:18;101691.91;;;11.70;83.37
71424;BME280;59240;51.370;-0.486;2024-02-21T02:43:15;101682.34;;;11.71;83.33
71424;BME280;59240;51.370;-0.486;2024-02-21T02:48:12;101674.50;;;11.71;83.36
71424;BME280;59240;51.370;-0.486;2024-02-21T02:53:09;101661.50;;;11.68;83.12
71424;BME280;59240;51.370;-0.486;2024-02-21T02:58:06;101616.38;;;11.58;83.05
71424;BME280;59240;51.370;-0.486;2024-02-21T03:03:03;101671.94;;;11.66;83.24
71424;BME280;59240;51.370;-0.486;2024-02-21T03:08:00;101668.59;;;11.57;83.66
71424;BME280;59240;51.370;-0.486;2024-02-21T03:12:57;101663.44;;;11.50;84.08
71424;BME280;59240;51.370;-0.486;2024-02-21T03:17:55;101650.47;;;11.44;84.59
71424;BME280;59240;51.370;-0.486;2024-02-21T03:22:54;101646.19;;;11.40;85.10
71424;BME280;59240;51.370;-0.486;2024-02-21T03:27:51;101603.75;;;11.23;84.78
71424;BME280;59240;51.370;-0.486;2024-02-21T03:32:51;101621.03;;;11.33;84.83
71424;BME280;59240;51.370;-0.486;2024-02-21T03:37:48;101594.97;;;11.30;84.59
71424;BME280;59240;51.370;-0.486;2024-02-21T03:42:47;101595.84;;;11.29;84.75
71424;BME280;59240;51.370;-0.486;2024-02-21T03:47:44;101596.75;;;11.28;84.97
71424;BME280;59240;51.370;-0.486;2024-02-21T03:52:41;101588.91;;;11.28;85.38
71424;BME280;59240;51.370;-0.486;2024-02-21T03:57:38;101579.38;;;11.27;85.34
71424;BME280;59240;51.370;-0.486;2024-02-21T04:02:35;101558.50;;;11.27;85.14
71424;BME280;59240;51.370;-0.486;2024-02-21T04:07:32;101546.34;;;11.26;85.11
71424;BME280;59240;51.370;-0.486;2024-02-21T04:12:29;101548.09;;;11.26;85.00
71424;BME280;59240;51.370;-0.486;2024-02-21T04:17:27;101526.38;;;11.23;84.91
71424;BME280;59240;51.370;-0.486;2024-02-21T04:22:24;101494.41;;;11.08;84.69
71424;BME280;59240;51.370;-0.486;2024-02-21T04:27:21;101513.31;;;11.25;84.72
71424;BME280;59240;51.370;-0.486;2024-02-21T04:32:18;101499.41;;;11.26;84.72
71424;BME280;59240;51.370;-0.486;2024-02-21T04:37:14;101456.13;;;11.10;84.82
71424;BME280;59240;51.370;-0.486;2024-02-21T04:42:11;101462.97;;;11.20;84.86
71424;BME280;59240;51.370;-0.486;2024-02-21T04:47:08;101456.03;;;11.19;84.60
71424;BME280;59240;51.370;-0.486;2024-02-21T04:52:05;101448.16;;;11.22;84.50
71424;BME280;59240;51.370;-0.486;2024-02-21T04:57:02;101435.13;;;11.22;84.51
71424;BME280;59240;51.370;-0.486;2024-02-21T05:01:59;101429.97;;;11.19;84.55
71424;BME280;59240;51.370;-0.486;2024-02-21T05:06:56;101415.19;;;11.16;84.60
71424;BME280;59240;51.370;-0.486;2024-02-21T05:11:53;101410.91;;;11.11;84.51
71424;BME280;59240;51.370;-0.486;2024-02-21T05:16:50;101395.25;;;11.14;84.54
71424;BME280;59240;51.370;-0.486;2024-02-21T05:21:47;101390.06;;;11.11;84.48
71424;BME280;59240;51.370;-0.486;2024-02-21T05:26:46;101381.38;;;11.12;84.58
71424;BME280;59240;51.370;-0.486;2024-02-21T05:36:49;101384.84;;;11.11;84.40
71424;BME280;59240;51.370;-0.486;2024-02-21T05:41:46;101334.72;;;10.93;84.25
71424;BME280;59240;51.370;-0.486;2024-02-21T05:46:43;101337.13;;;11.04;84.32
71424;BME280;59240;51.370;-0.486;2024-02-21T05:51:40;101327.72;;;10.95;84.59
71424;BME280;59240;51.370;-0.486;2024-02-21T05:56:37;101309.59;;;10.88;85.21
71424;BME280;59240;51.370;-0.486;2024-02-21T06:01:34;101272.59;;;10.64;86.29
71424;BME280;59240;51.370;-0.486;2024-02-21T06:06:32;101308.03;;;10.75;86.62
71424;BME280;59240;51.370;-0.486;2024-02-21T06:11:29;101291.59;;;10.69;87.34
71424;BME280;59240;51.370;-0.486;2024-02-21T06:16:26;101251.78;;;10.61;87.51
71424;BME280;59240;51.370;-0.486;2024-02-21T06:21:23;101234.44;;;10.59;87.88
71424;BME280;59240;51.370;-0.486;2024-02-21T06:26:20;101193.97;;;10.36;88.62
71424;BME280;59240;51.370;-0.486;2024-02-21T06:31:16;101212.78;;;10.57;90.53
71424;BME280;59240;51.370;-0.486;2024-02-21T06:36:14;101194.56;;;10.54;90.98
71424;BME280;59240;51.370;-0.486;2024-02-21T06:41:15;101174.66;;;10.51;93.86
71424;BME280;59240;51.370;-0.486;2024-02-21T06:46:26;101158.25;;;10.45;99.21
71424;BME280;59240;51.370;-0.486;2024-02-21T06:51:26;101136.63;;;10.39;96.76
71424;BME280;59240;51.370;-0.486;2024-02-21T06:56:24;101129.72;;;10.37;97.90
71424;BME280;59240;51.370;-0.486;2024-02-21T07:01:25;101112.47;;;10.30;99.67
71424;BME280;59240;51.370;-0.486;2024-02-21T07:06:23;101114.91;;;10.40;99.50
71424;BME280;59240;51.370;-0.486;2024-02-21T07:11:20;101109.66;;;10.44;100.00
71424;BME280;59240;51.370;-0.486;2024-02-21T07:16:17;101087.06;;;10.43;100.00
71424;BME280;59240;51.370;-0.486;2024-02-21T07:21:14;101081.88;;;10.43;100.00
71424;BME280;59240;51.370;-0.486;2024-02-21T07:26:12;101077.50;;;10.46;100.00
71424;BME280;59240;51.370;-0.486;2024-02-21T07:31:09;101045.41;;;10.43;100.00
71424;BME280;59240;51.370;-0.486;2024-02-21T07:36:11;101002.28;;;10.26;100.00
71424;BME280;59240;51.370;-0.486;2024-02-21T07:41:08;100998.66;;;10.36;100.00
71424;BME280;59240;51.370;-0.486;2024-02-21T07:46:05;100986.50;;;10.35;100.00
71424;BME280;59240;51.370;-0.486;2024-02-21T07:51:02;100977.84;;;10.36;100.00
71424;BME280;59240;51.370;-0.486;2024-02-21T07:55:59;100940.78;;;10.19;100.00
71424;BME280;59240;51.370;-0.486;2024-02-21T08:00:56;101000.00;;;10.59;100.00
71424;BME280;59240;51.370;-0.486;2024-02-21T08:05:53;100976.50;;;10.60;100.00
71424;BME280;59240;51.370;-0.486;2024-02-21T08:10:50;100953.25;;;10.50;100.00
71424;BME280;59240;51.370;-0.486;2024-02-21T08:15:47;100896.59;;;10.16;100.00
71424;BME280;59240;51.370;-0.486;2024-02-21T08:20:44;100956.63;;;10.55;100.00
71424;BME280;59240;51.370;-0.486;2024-02-21T08:25:41;100934.28;;;10.45;100.00
71424;BME280;59240;51.370;-0.486;2024-02-21T08:30:38;100921.28;;;10.43;100.00
71424;BME280;59240;51.370;-0.486;2024-02-21T08:35:34;100920.25;;;10.52;100.00
71424;BME280;59240;51.370;-0.486;2024-02-21T08:40:31;100915.16;;;10.46;100.00
71424;BME280;59240;51.370;-0.486;2024-02-21T08:45:31;100890.03;;;10.41;100.00
71424;BME280;59240;51.370;-0.486;2024-02-21T08:50:28;100905.44;;;10.54;100.00
71424;BME280;59240;51.370;-0.486;2024-02-21T08:55:26;100868.50;;;10.33;100.00
71424;BME280;59240;51.370;-0.486;2024-02-21T09:00:24;100873.47;;;10.46;100.00
71424;BME280;59240;51.370;-0.486;2024-02-21T09:05:24;100857.00;;;10.45;100.00
71424;BME280;59240;51.370;-0.486;2024-02-21T09:10:22;100788.16;;;10.13;100.00
71424;BME280;59240;51.370;-0.486;2024-02-21T09:15:19;100847.22;;;10.55;100.00
71424;BME280;59240;51.370;-0.486;2024-02-21T09:20:16;100800.69;;;10.39;100.00
71424;BME280;59240;51.370;-0.486;2024-02-21T09:25:13;100810.88;;;10.49;100.00
71424;BME280;59240;51.370;-0.486;2024-02-21T09:30:10;100821.09;;;10.59;100.00
71424;BME280;59240;51.370;-0.486;2024-02-21T09:35:07;100807.22;;;10.59;100.00
71424;BME280;59240;51.370;-0.486;2024-02-21T09:40:05;100767.63;;;10.41;100.00
71424;BME280;59240;51.370;-0.486;2024-02-21T09:45:07;100783.84;;;10.54;100.00
71424;BME280;59240;51.370;-0.486;2024-02-21T09:50:05;100777.75;;;10.57;100.00
71424;BME280;59240;51.370;-0.486;2024-02-21T09:55:02;100727.75;;;10.39;100.00
71424;BME280;59240;51.370;-0.486;2024-02-21T10:00:01;100719.88;;;10.43;100.00
71424;BME280;59240;51.370;-0.486;2024-02-21T10:05:05;100718.78;;;10.53;100.00
71424;BME280;59240;51.370;-0.486;2024-02-21T10:10:05;100689.63;;;10.37;100.00
71424;BME280;59240;51.370;-0.486;2024-02-21T10:15:05;100714.25;;;10.61;100.00
71424;BME280;59240;51.370;-0.486;2024-02-21T10:20:09;100680.47;;;10.58;100.00
71424;BME280;59240;51.370;-0.486;2024-02-21T10:25:13;100669.03;;;10.63;100.00
71424;BME280;59240;51.370;-0.486;2024-02-21T10:30:14;100657.59;;;10.69;100.00
71424;BME280;59240;51.370;-0.486;2024-02-21T10:35:11;100605.88;;;10.54;100.00
71424;BME280;59240;51.370;-0.486;2024-02-21T10:40:10;100615.03;;;10.70;100.00
71424;BME280;59240;51.370;-0.486;2024-02-21T10:45:08;100603.72;;;10.71;100.00
71424;BME280;59240;51.370;-0.486;2024-02-21T10:50:11;100588.09;;;10.71;100.00
71424;BME280;59240;51.370;-0.486;2024-02-21T10:55:17;100585.41;;;10.74;100.00
71424;BME280;59240;51.370;-0.486;2024-02-21T11:00:17;100586.22;;;10.76;100.00
71424;BME280;59240;51.370;-0.486;2024-02-21T11:05:14;100565.19;;;10.82;100.00
71424;BME280;59240;51.370;-0.486;2024-02-21T11:10:25;100555.44;;;10.90;100.00
71424;BME280;59240;51.370;-0.486;2024-02-21T11:15:26;100513.09;;;10.82;100.00
71424;BME280;59240;51.370;-0.486;2024-02-21T11:20:36;100522.28;;;10.95;100.00
71424;BME280;59240;51.370;-0.486;2024-02-21T11:25:34;100482.66;;;10.83;100.00
71424;BME280;59240;51.370;-0.486;2024-02-21T11:30:32;100466.81;;;10.92;100.00
71424;BME280;59240;51.370;-0.486;2024-02-21T11:35:33;100443.56;;;10.84;100.00
71424;BME280;59240;51.370;-0.486;2024-02-21T11:40:31;100463.78;;;11.06;100.00
71424;BME280;59240;51.370;-0.486;2024-02-21T11:45:27;100431.66;;;11.05;100.00
71424;BME280;59240;51.370;-0.486;2024-02-21T11:50:24;100408.03;;;11.10;100.00
71424;BME280;59240;51.370;-0.486;2024-02-21T11:55:27;100400.16;;;11.13;100.00
71424;BME280;59240;51.370;-0.486;2024-02-21T12:00:25;100383.50;;;11.17;100.00
71424;BME280;59240;51.370;-0.486;2024-02-21T12:05:22;100366.16;;;11.16;100.00
71424;BME280;59240;51.370;-0.486;2024-02-21T12:10:19;100341.97;;;11.11;100.00
71424;BME280;59240;51.370;-0.486;2024-02-21T12:15:18;100345.63;;;11.33;100.00
71424;BME280;59240;51.370;-0.486;2024-02-21T12:20:15;100300.00;;;11.20;100.00
71424;BME280;59240;51.370;-0.486;2024-02-21T12:25:16;100307.81;;;11.46;100.00
71424;BME280;59240;51.370;-0.486;2024-02-21T12:30:18;100285.22;;;11.45;100.00
71424;BME280;59240;51.370;-0.486;2024-02-21T12:35:16;100264.22;;;11.50;100.00
71424;BME280;59240;51.370;-0.486;2024-02-21T12:40:14;100223.78;;;11.37;100.00
71424;BME280;59240;51.370;-0.486;2024-02-21T12:45:12;100247.38;;;11.59;100.00
71424;BME280;59240;51.370;-0.486;2024-02-21T12:50:09;100233.34;;;11.63;100.00
71424;BME280;59240;51.370;-0.486;2024-02-21T12:55:06;100218.38;;;11.68;100.00
71424;BME280;59240;51.370;-0.486;2024-02-21T13:00:05;100200.78;;;11.73;100.00
71424;BME280;59240;51.370;-0.486;2024-02-21T13:05:05;100172.84;;;11.76;100.00
71424;BME280;59240;51.370;-0.486;2024-02-21T13:10:04;100167.56;;;11.78;100.00
71424;BME280;59240;51.370;-0.486;2024-02-21T13:15:02;100145.19;;;11.71;100.00
71424;BME280;59240;51.370;-0.486;2024-02-21T13:19:59;100130.69;;;11.64;100.00
71424;BME280;59240;51.370;-0.486;2024-02-21T13:24:57;100120.81;;;11.72;100.00
71424;BME280;59240;51.370;-0.486;2024-02-21T13:29:54;100112.75;;;11.78;100.00
71424;BME280;59240;51.370;-0.486;2024-02-21T13:34:51;100082.34;;;11.77;100.00
71424;BME280;59240;51.370;-0.486;2024-02-21T13:39:49;100042.66;;;11.69;100.00
71424;BME280;59240;51.370;-0.486;2024-02-21T13:44:46;100067.34;;;11.84;100.00
71424;BME280;59240;51.370;-0.486;2024-02-21T13:49:43;100008.81;;;11.67;100.00
71424;BME280;59240;51.370;-0.486;2024-02-21T13:54:40;100006.00;;;11.72;100.00
71424;BME280;59240;51.370;-0.486;2024-02-21T13:59:38;100023.88;;;11.83;100.00
71424;BME280;59240;51.370;-0.486;2024-02-21T14:04:36;99985.34;;;11.66;100.00
71424;BME280;59240;51.370;-0.486;2024-02-21T14:09:33;100000.34;;;11.84;100.00
71424;BME280;59240;51.370;-0.486;2024-02-21T14:14:30;99973.91;;;11.70;100.00
71424;BME280;59240;51.370;-0.486;2024-02-21T14:19:27;99958.56;;;11.84;100.00
71424;BME280;59240;51.370;-0.486;2024-02-21T14:24:24;99963.94;;;11.81;100.00
71424;BME280;59240;51.370;-0.486;2024-02-21T14:29:22;99952.13;;;11.93;100.00
71424;BME280;59240;51.370;-0.486;2024-02-21T14:34:19;99948.56;;;11.95;100.00
71424;BME280;59240;51.370;-0.486;2024-02-21T14:39:16;99903.47;;;11.70;100.00
71424;BME280;59240;51.370;-0.486;2024-02-21T14:44:13;99932.47;;;11.84;100.00
71424;BME280;59240;51.370;-0.486;2024-02-21T14:49:11;99929.38;;;11.96;100.00
71424;BME280;59240;51.370;-0.486;2024-02-21T14:54:08;99931.75;;;12.02;100.00
71424;BME280;59240;51.370;-0.486;2024-02-21T14:59:05;99926.38;;;12.05;100.00
71424;BME280;59240;51.370;-0.486;2024-02-21T15:04:15;99871.28;;;11.91;100.00
71424;BME280;59240;51.370;-0.486;2024-02-21T15:09:17;99895.91;;;12.06;100.00
71424;BME280;59240;51.370;-0.486;2024-02-21T15:14:16;99878.28;;;12.11;100.00
71424;BME280;59240;51.370;-0.486;2024-02-21T15:19:12;99868.69;;;12.12;100.00
71424;BME280;59240;51.370;-0.486;2024-02-21T15:24:09;99875.53;;;12.14;100.00
71424;BME280;59240;51.370;-0.486;2024-02-21T15:29:06;99829.94;;;12.02;100.00
71424;BME280;59240;51.370;-0.486;2024-02-21T15:34:03;99850.53;;;12.29;100.00
71424;BME280;59240;51.370;-0.486;2024-02-21T15:39:00;99843.47;;;12.31;100.00
71424;BME280;59240;51.370;-0.486;2024-02-21T15:43:59;99837.19;;;12.35;100.00
71424;BME280;59240;51.370;-0.486;2024-02-21T15:48:56;99803.34;;;12.13;100.00
71424;BME280;59240;51.370;-0.486;2024-02-21T15:53:56;99855.84;;;12.46;100.00
71424;BME280;59240;51.370;-0.486;2024-02-21T15:58:53;99841.78;;;12.49;100.00
71424;BME280;59240;51.370;-0.486;2024-02-21T16:03:52;99837.28;;;12.52;100.00
71424;BME280;59240;51.370;-0.486;2024-02-21T16:08:52;99779.88;;;12.32;100.00
71424;BME280;59240;51.370;-0.486;2024-02-21T16:13:49;99831.38;;;12.68;100.00
71424;BME280;59240;51.370;-0.486;2024-02-21T16:18:46;99786.81;;;12.52;100.00
71424;BME280;59240;51.370;-0.486;2024-02-21T16:23:46;99804.97;;;12.74;100.00
71424;BME280;59240;51.370;-0.486;2024-02-21T16:28:43;99782.09;;;12.79;100.00
71424;BME280;59240;51.370;-0.486;2024-02-21T16:33:40;99802.78;;;12.83;100.00
71424;BME280;59240;51.370;-0.486;2024-02-21T16:38:37;99768.25;;;12.77;100.00
71424;BME280;59240;51.370;-0.486;2024-02-21T16:43:36;99785.53;;;12.79;100.00
71424;BME280;59240;51.370;-0.486;2024-02-21T16:48:36;99784.41;;;12.85;100.00
71424;BME280;59240;51.370;-0.486;2024-02-21T16:53:33;99786.88;;;12.88;100.00
71424;BME280;59240;51.370;-0.486;2024-02-21T16:58:29;99787.03;;;12.85;100.00
71424;BME280;59240;51.370;-0.486;2024-02-21T17:03:34;99797.66;;;12.99;100.00
71424;BME280;59240;51.370;-0.486;2024-02-21T17:08:31;99803.81;;;12.98;100.00
71424;BME280;59240;51.370;-0.486;2024-02-21T17:13:29;99822.03;;;13.00;100.00
71424;BME280;59240;51.370;-0.486;2024-02-21T17:18:25;99833.44;;;12.99;100.00
71424;BME280;59240;51.370;-0.486;2024-02-21T17:23:25;99827.97;;;13.03;100.00
71424;BME280;59240;51.370;-0.486;2024-02-21T17:28:23;99836.88;;;12.99;100.00
71424;BME280;59240;51.370;-0.486;2024-02-21T17:33:20;99829.81;;;13.01;100.00
71424;BME280;59240;51.370;-0.486;2024-02-21T17:38:17;99837.66;;;13.01;100.00
71424;BME280;59240;51.370;-0.486;2024-02-21T17:43:18;99816.81;;;12.81;100.00
71424;BME280;59240;51.370;-0.486;2024-02-21T17:48:15;99851.72;;;12.99;100.00
71424;BME280;59240;51.370;-0.486;2024-02-21T17:53:12;99865.38;;;13.05;100.00
71424;BME280;59240;51.370;-0.486;2024-02-21T17:58:09;99865.19;;;13.08;100.00
71424;BME280;59240;51.370;-0.486;2024-02-21T18:03:06;99844.16;;;13.11;100.00
71424;BME280;59240;51.370;-0.486;2024-02-21T18:08:06;99823.91;;;12.98;100.00
71424;BME280;59240;51.370;-0.486;2024-02-21T18:13:05;99877.34;;;13.09;100.00
71424;BME280;59240;51.370;-0.486;2024-02-21T18:18:02;99878.44;;;13.05;100.00
71424;BME280;59240;51.370;-0.486;2024-02-21T18:22:59;99881.97;;;13.04;100.00
71424;BME280;59240;51.370;-0.486;2024-02-21T18:27:56;99877.03;;;12.98;100.00
71424;BME280;59240;51.370;-0.486;2024-02-21T18:32:53;99887.75;;;12.92;100.00
71424;BME280;59240;51.370;-0.486;2024-02-21T18:37:50;99883.31;;;12.94;100.00
71424;BME280;59240;51.370;-0.486;2024-02-21T18:42:47;99873.13;;;12.88;100.00
71424;BME280;59240;51.370;-0.486;2024-02-21T18:47:44;99880.13;;;12.87;100.00
71424;BME280;59240;51.370;-0.486;2024-02-21T18:52:41;99892.13;;;12.73;100.00
71424;BME280;59240;51.370;-0.486;2024-02-21T18:57:38;99896.44;;;12.74;100.00
71424;BME280;59240;51.370;-0.486;2024-02-21T19:02:37;99868.69;;;12.71;100.00
71424;BME280;59240;51.370;-0.486;2024-02-21T19:07:33;99889.53;;;12.52;100.00
71424;BME280;59240;51.370;-0.486;2024-02-21T19:12:31;99907.31;;;12.65;100.00
71424;BME280;59240;51.370;-0.486;2024-02-21T19:17:28;99890.19;;;12.57;100.00
71424;BME280;59240;51.370;-0.486;2024-02-21T19:22:25;99882.75;;;12.48;100.00
71424;BME280;59240;51.370;-0.486;2024-02-21T19:27:31;99871.13;;;12.35;100.00
71424;BME280;59240;51.370;-0.486;2024-02-21T19:32:28;99895.81;;;12.48;100.00
71424;BME280;59240;51.370;-0.486;2024-02-21T19:37:25;99881.59;;;12.35;100.00
71424;BME280;59240;51.370;-0.486;2024-02-21T19:42:22;99881.59;;;12.35;100.00
71424;BME280;59240;51.370;-0.486;2024-02-21T19:47:19;99895.19;;;12.43;100.00
71424;BME280;59240;51.370;-0.486;2024-02-21T19:52:16;99889.97;;;12.43;100.00
71424;BME280;59240;51.370;-0.486;2024-02-21T19:57:13;99878.97;;;12.35;100.00
71424;BME280;59240;51.370;-0.486;2024-02-21T20:02:10;99885.13;;;12.34;100.00
71424;BME280;59240;51.370;-0.486;2024-02-21T20:07:07;99838.69;;;12.01;100.00
71424;BME280;59240;51.370;-0.486;2024-02-21T20:12:04;99886.25;;;12.28;100.00
71424;BME280;59240;51.370;-0.486;2024-02-21T20:17:01;99866.59;;;12.20;100.00
71424;BME280;59240;51.370;-0.486;2024-02-21T20:21:58;99878.47;;;12.27;100.00
71424;BME280;59240;51.370;-0.486;2024-02-21T20:26:55;99869.66;;;12.29;100.00
71424;BME280;59240;51.370;-0.486;2024-02-21T20:31:52;99869.84;;;12.25;100.00
71424;BME280;59240;51.370;-0.486;2024-02-21T20:36:52;99855.53;;;12.15;100.00
71424;BME280;59240;51.370;-0.486;2024-02-21T20:41:49;99862.44;;;12.16;100.00
71424;BME280;59240;51.370;-0.486;2024-02-21T20:46:45;99861.63;;;12.14;100.00
71424;BME280;59240;51.370;-0.486;2024-02-21T20:51:43;99813.75;;;11.94;100.00
71424;BME280;59240;51.370;-0.486;2024-02-21T20:56:40;99848.47;;;12.17;100.00
71424;BME280;59240;51.370;-0.486;2024-02-21T21:01:38;99852.91;;;12.15;100.00
71424;BME280;59240;51.370;-0.486;2024-02-21T21:06:46;99822.22;;;11.99;100.00
71424;BME280;59240;51.370;-0.486;2024-02-21T21:11:43;99823.91;;;12.00;100.00
71424;BME280;59240;51.370;-0.486;2024-02-21T21:16:42;99850.47;;;12.10;100.00
71424;BME280;59240;51.370;-0.486;2024-02-21T21:21:39;99824.72;;;11.82;100.00
71424;BME280;59240;51.370;-0.486;2024-02-21T21:26:38;99818.13;;;11.72;100.00
71424;BME280;59240;51.370;-0.486;2024-02-21T21:31:35;99848.72;;;11.90;100.00
71424;BME280;59240;51.370;-0.486;2024-02-21T21:36:33;99860.06;;;11.89;100.00
71424;BME280;59240;51.370;-0.486;2024-02-21T21:41:32;99831.16;;;11.73;100.00
71424;BME280;59240;51.370;-0.486;2024-02-21T21:46:29;99806.66;;;11.56;100.00
71424;BME280;59240;51.370;-0.486;2024-02-21T21:51:26;99834.03;;;11.66;100.00
71424;BME280;59240;51.370;-0.486;2024-02-21T21:56:25;99831.91;;;11.55;100.00
71424;BME280;59240;51.370;-0.486;2024-02-21T22:01:26;99825.22;;;11.48;100.00
71424;BME280;59240;51.370;-0.486;2024-02-21T22:06:25;99837.22;;;11.52;100.00
71424;BME280;59240;51.370;-0.486;2024-02-21T22:11:22;99854.31;;;11.59;100.00
71424;BME280;59240;51.370;-0.486;2024-02-21T22:16:19;99812.88;;;11.31;100.00
71424;BME280;59240;51.370;-0.486;2024-02-21T22:21:16;99819.34;;;11.43;100.00
71424;BME280;59240;51.370;-0.486;2024-02-21T22:26:16;99806.69;;;11.34;100.00
71424;BME280;59240;51.370;-0.486;2024-02-21T22:31:16;99812.75;;;11.34;100.00
71424;BME280;59240;51.370;-0.486;2024-02-21T22:36:13;99801.28;;;11.38;100.00
71424;BME280;59240;51.370;-0.486;2024-02-21T22:41:17;99793.69;;;11.32;100.00
71424;BME280;59240;51.370;-0.486;2024-02-21T22:46:20;99774.81;;;11.27;100.00
71424;BME280;59240;51.370;-0.486;2024-02-21T22:51:18;99788.88;;;11.23;100.00
71424;BME280;59240;51.370;-0.486;2024-02-21T22:56:15;99734.72;;;10.87;100.00
71424;BME280;59240;51.370;-0.486;2024-02-21T23:01:12;99767.47;;;11.15;100.00
71424;BME280;59240;51.370;-0.486;2024-02-21T23:06:09;99767.66;;;11.10;100.00
71424;BME280;59240;51.370;-0.486;2024-02-21T23:11:08;99736.03;;;10.98;100.00
71424;BME280;59240;51.370;-0.486;2024-02-21T23:16:05;99771.53;;;11.22;100.00
71424;BME280;59240;51.370;-0.486;2024-02-21T23:21:02;99769.16;;;11.16;100.00
71424;BME280;59240;51.370;-0.486;2024-02-21T23:25:59;99759.66;;;11.15;100.00
71424;BME280;59240;51.370;-0.486;2024-02-21T23:30:56;99769.59;;;11.27;100.00
71424;BME280;59240;51.370;-0.486;2024-02-21T23:35:52;99765.16;;;11.29;100.00
71424;BME280;59240;51.370;-0.486;2024-02-21T23:40:49;99771.03;;;11.34;100.00
71424;BME280;59240;51.370;-0.486;2024-02-21T23:45:46;99764.97;;;11.34;100.00
71424;BME280;59240;51.370;-0.486;2024-02-21T23:50:44;99753.94;;;11.27;100.00
71424;BME280;59240;51.370;-0.486;2024-02-21T23:55:42;99714.94;;;11.04;100.00
